Time;durP1;ratioP1;P1;durP2;ratioP2;P2;SDS_P1;SDS_P2;PMS_P1;PMS_P2;Temp;Humidity;BMP_temperature;BMP_pressure;BME280_temperature;BME280_humidity;BME280_pressure;Samples;Min_cycle;Max_cycle;Signal;HPM_P1;HPM_P2
2022/05/18 00:00:51;;;;;;;2.28;1.40;;;16.50;61.20;;;;;;5131198;27;20277;-62
2022/05/18 00:03:28;;;;;;;2.75;1.67;;;16.50;61.20;;;;;;5127854;27;20193;-62
2022/05/18 00:06:01;;;;;;;1.67;1.50;;;16.50;61.20;;;;;;5131256;27;20691;-62
2022/05/18 00:08:35;;;;;;;1.98;1.50;;;16.60;61.20;;;;;;5131131;27;20640;-62
2022/05/18 00:11:08;;;;;;;2.15;1.50;;;16.60;61.20;;;;;;5130433;27;20216;-61
2022/05/18 00:13:39;;;;;;;1.70;1.60;;;16.60;61.20;;;;;;5130405;27;20228;-62
2022/05/18 00:16:11;;;;;;;2.28;1.30;;;16.70;61.20;;;;;;5130626;27;20192;-62
2022/05/18 00:18:42;;;;;;;2.05;1.38;;;16.70;61.30;;;;;;5130989;27;20205;-62
2022/05/18 00:21:13;;;;;;;1.50;1.40;;;16.70;61.30;;;;;;5131074;27;20208;-61
2022/05/18 00:23:44;;;;;;;2.15;1.75;;;16.80;61.30;;;;;;5130604;27;20236;-61
2022/05/18 00:26:14;;;;;;;1.63;1.52;;;16.80;61.20;;;;;;5130734;27;20197;-61
2022/05/18 00:28:45;;;;;;;1.92;1.50;;;16.80;61.20;;;;;;5130752;27;20664;-62
2022/05/18 00:31:18;;;;;;;1.75;1.50;;;16.80;61.20;;;;;;5132329;27;20208;-62
2022/05/18 00:33:49;;;;;;;1.88;1.50;;;16.80;61.20;;;;;;5130748;28;20311;-61
2022/05/18 00:36:22;;;;;;;1.88;1.33;;;16.90;61.20;;;;;;5131013;28;20238;-60
2022/05/18 00:38:53;;;;;;;2.30;1.50;;;16.90;61.10;;;;;;5131102;27;20217;-61
2022/05/18 00:41:23;;;;;;;2.65;1.40;;;16.90;61.00;;;;;;5130668;27;20213;-61
2022/05/18 00:43:55;;;;;;;1.40;1.30;;;17.00;61.10;;;;;;5129752;28;20189;-60
2022/05/18 00:46:27;;;;;;;2.00;1.52;;;17.00;61.00;;;;;;5130458;28;20188;-61
2022/05/18 00:48:58;;;;;;;1.98;1.20;;;17.00;61.00;;;;;;5130880;28;20249;-61
2022/05/18 00:51:32;;;;;;;2.33;1.30;;;17.10;60.90;;;;;;5130585;28;20268;-61
2022/05/18 00:54:08;;;;;;;1.30;1.10;;;17.10;60.90;;;;;;5130513;27;20255;-61
2022/05/18 00:56:42;;;;;;;1.38;1.00;;;17.10;60.80;;;;;;5130862;28;20237;-60
2022/05/18 00:59:18;;;;;;;1.65;1.30;;;17.20;60.70;;;;;;5130276;28;20214;-61
2022/05/18 01:01:53;;;;;;;1.48;1.20;;;17.20;60.60;;;;;;5130308;28;20201;-61
2022/05/18 01:04:25;;;;;;;1.33;1.20;;;17.20;60.50;;;;;;5130598;28;20256;-62
2022/05/18 01:07:01;;;;;;;1.90;1.13;;;17.30;60.40;;;;;;5130398;28;20645;-62
2022/05/18 01:09:35;;;;;;;1.60;1.33;;;17.30;60.20;;;;;;5130372;28;20193;-61
2022/05/18 01:12:07;;;;;;;1.10;1.00;;;17.30;60.10;;;;;;5130141;28;20198;-61
2022/05/18 01:14:43;;;;;;;1.65;1.30;;;17.40;60.10;;;;;;5129790;28;20274;-62
2022/05/18 01:17:17;;;;;;;1.67;1.27;;;17.40;60.00;;;;;;5130383;28;20668;-61
2022/05/18 01:19:49;;;;;;;2.13;1.13;;;17.40;59.90;;;;;;5130611;28;20216;-60
2022/05/18 01:22:31;;;;;;;2.15;1.13;;;17.40;59.80;;;;;;5131377;27;20202;-60
2022/05/18 01:25:10;;;;;;;1.63;1.10;;;17.50;59.90;;;;;;5134120;27;20713;-61
2022/05/18 01:27:42;;;;;;;1.30;1.10;;;17.50;60.50;;;;;;5133889;27;20197;-62
2022/05/18 01:30:14;;;;;;;1.83;0.98;;;17.50;59.80;;;;;;5134706;27;20282;-60
2022/05/18 01:32:54;;;;;;;1.17;1.00;;;17.50;59.80;;;;;;5130957;27;20189;-61
2022/05/18 01:35:26;;;;;;;1.42;0.90;;;17.60;59.80;;;;;;5133898;27;20312;-61
2022/05/18 01:37:59;;;;;;;1.60;0.98;;;17.60;59.70;;;;;;5133433;27;20288;-61
2022/05/18 01:40:36;;;;;;;1.42;1.23;;;17.60;59.70;;;;;;5133743;27;20793;-61
2022/05/18 01:43:14;;;;;;;1.38;1.00;;;17.70;59.70;;;;;;5133866;27;20594;-61
2022/05/18 01:45:44;;;;;;;1.30;1.10;;;17.70;59.70;;;;;;5133621;27;20196;-61
2022/05/18 01:48:18;;;;;;;1.42;1.00;;;17.80;59.70;;;;;;5133423;27;20584;-61
2022/05/18 01:50:48;;;;;;;1.70;0.95;;;17.80;59.50;;;;;;5133373;27;20213;-61
2022/05/18 01:53:19;;;;;;;2.80;1.10;;;17.80;59.50;;;;;;5133387;27;20189;-61
2022/05/18 01:55:50;;;;;;;1.17;0.90;;;17.80;59.40;;;;;;5118849;27;20220;-61
2022/05/18 01:58:22;;;;;;;1.02;0.85;;;17.90;59.40;;;;;;5119594;27;20617;-61
2022/05/18 02:00:54;;;;;;;1.20;1.05;;;17.90;59.30;;;;;;5133538;27;20257;-60
2022/05/18 02:03:25;;;;;;;0.75;0.73;;;17.90;59.30;;;;;;5133358;27;20185;-61
2022/05/18 02:05:56;;;;;;;2.00;0.93;;;18.00;59.20;;;;;;5133393;27;20530;-60
2022/05/18 02:08:27;;;;;;;0.90;0.82;;;18.00;59.20;;;;;;5133714;27;20223;-60
2022/05/18 02:10:57;;;;;;;1.08;0.80;;;18.00;59.10;;;;;;5133621;27;20696;-60
2022/05/18 02:13:29;;;;;;;1.88;0.80;;;18.10;59.10;;;;;;5132881;27;20265;-63
2022/05/18 02:16:00;;;;;;;1.92;0.90;;;18.10;59.10;;;;;;5133111;27;20218;-61
2022/05/18 02:18:31;;;;;;;0.93;0.63;;;18.10;59.00;;;;;;5133207;27;20246;-61
2022/05/18 02:21:04;;;;;;;1.00;0.70;;;18.20;59.00;;;;;;5133274;27;20209;-61
2022/05/18 02:23:34;;;;;;;1.23;0.80;;;18.20;58.90;;;;;;5133238;27;20227;-61
2022/05/18 02:26:09;;;;;;;1.10;0.77;;;18.20;58.90;;;;;;5133355;27;20193;-60
2022/05/18 02:28:43;;;;;;;1.98;0.70;;;18.30;58.90;;;;;;5132630;27;20249;-61
2022/05/18 02:31:14;;;;;;;2.30;1.02;;;18.30;58.80;;;;;;5133322;27;20209;-61
2022/05/18 02:33:45;;;;;;;1.27;0.82;;;18.30;58.80;;;;;;5132427;27;20212;-61
2022/05/18 02:36:16;;;;;;;2.28;0.80;;;18.40;58.80;;;;;;5133109;27;20278;-62
2022/05/18 02:38:50;;;;;;;0.85;0.70;;;18.40;58.80;;;;;;5132799;27;20200;-61
2022/05/18 02:41:22;;;;;;;1.60;0.93;;;18.40;58.80;;;;;;5132268;27;20749;-61
2022/05/18 02:43:55;;;;;;;0.85;0.75;;;18.40;58.80;;;;;;5132377;27;20192;-61
2022/05/18 02:46:26;;;;;;;0.80;0.60;;;18.50;58.80;;;;;;5132679;27;20192;-61
2022/05/18 02:48:57;;;;;;;0.73;0.55;;;18.50;58.80;;;;;;5132894;27;20262;-61
2022/05/18 02:51:27;;;;;;;0.90;0.80;;;18.50;58.80;;;;;;5132472;27;20209;-61
2022/05/18 02:53:58;;;;;;;1.38;0.80;;;18.60;58.80;;;;;;5131931;27;20259;-61
2022/05/18 02:56:28;;;;;;;0.93;0.70;;;18.60;58.70;;;;;;5132327;27;20192;-60
2022/05/18 02:59:01;;;;;;;1.63;0.90;;;18.60;58.70;;;;;;5131615;27;20288;-60
2022/05/18 03:01:32;;;;;;;1.05;0.70;;;18.70;58.70;;;;;;5131980;27;20258;-60
2022/05/18 03:04:02;;;;;;;1.08;0.75;;;18.70;58.70;;;;;;5132143;27;20566;-59
2022/05/18 03:06:33;;;;;;;1.00;0.68;;;18.70;58.90;;;;;;5132207;27;20189;-60
2022/05/18 03:09:03;;;;;;;1.55;0.80;;;18.80;58.60;;;;;;5131758;27;20253;-60
2022/05/18 03:11:34;;;;;;;1.40;0.75;;;18.80;58.60;;;;;;5131824;27;20266;-60
2022/05/18 03:14:06;;;;;;;0.70;0.70;;;18.90;58.50;;;;;;5131544;27;20216;-60
2022/05/18 03:16:37;;;;;;;1.42;0.77;;;18.90;58.50;;;;;;5132035;27;20250;-60
2022/05/18 03:19:08;;;;;;;1.90;0.93;;;18.90;58.40;;;;;;5132193;27;20587;-59
2022/05/18 03:24:25;;;;;;;0.88;0.70;;;19.00;58.30;;;;;;5132355;27;20237;-61
2022/05/18 03:26:55;;;;;;;1.00;0.70;;;19.10;58.40;;;;;;5131749;27;20257;-60
2022/05/18 03:29:28;;;;;;;1.30;0.70;;;19.10;58.20;;;;;;5131528;27;20636;-61
2022/05/18 03:31:58;;;;;;;1.08;0.70;;;19.10;58.20;;;;;;5131705;27;20197;-61
2022/05/18 03:34:29;;;;;;;0.70;0.70;;;19.10;58.10;;;;;;5127616;27;20252;-61
2022/05/18 03:36:59;;;;;;;0.90;0.73;;;19.20;58.10;;;;;;5131418;27;20253;-60
2022/05/18 03:39:30;;;;;;;1.42;1.10;;;19.20;58.10;;;;;;5131633;27;20189;-59
2022/05/18 03:42:00;;;;;;;1.73;1.00;;;19.20;58.10;;;;;;5131584;27;20245;-59
2022/05/18 03:44:33;;;;;;;1.20;0.88;;;19.30;58.00;;;;;;5130712;27;20224;-60
2022/05/18 03:47:03;;;;;;;1.00;0.90;;;19.30;58.00;;;;;;5131450;27;20227;-59
2022/05/18 03:49:34;;;;;;;1.17;1.00;;;19.30;58.10;;;;;;5131625;27;20217;-59
2022/05/18 03:52:04;;;;;;;1.08;0.80;;;19.30;58.10;;;;;;5131353;27;20266;-61
2022/05/18 03:54:35;;;;;;;1.42;0.77;;;19.40;58.10;;;;;;5131023;27;20212;-60
2022/05/18 03:57:07;;;;;;;1.00;0.90;;;19.40;58.10;;;;;;5114174;27;20193;-60
2022/05/18 03:59:41;;;;;;;1.08;0.75;;;19.50;58.10;;;;;;5121846;27;20209;-60
2022/05/18 04:02:11;;;;;;;1.42;1.00;;;19.50;58.00;;;;;;5130671;27;20673;-60
2022/05/18 04:04:42;;;;;;;1.10;0.95;;;19.50;58.10;;;;;;5131182;27;20232;-60
2022/05/18 04:07:13;;;;;;;1.15;1.05;;;19.50;58.10;;;;;;5131402;27;20284;-59
2022/05/18 04:09:47;;;;;;;1.80;0.93;;;19.60;58.20;;;;;;5131440;27;20216;-60
2022/05/18 04:12:17;;;;;;;1.00;0.85;;;19.60;58.30;;;;;;5131078;27;20199;-60
2022/05/18 04:14:54;;;;;;;1.45;0.90;;;19.60;58.30;;;;;;5130245;27;20273;-60
2022/05/18 04:17:25;;;;;;;1.88;1.10;;;19.60;58.20;;;;;;5130613;27;20189;-60
2022/05/18 04:19:55;;;;;;;2.55;1.02;;;19.70;58.20;;;;;;5130873;27;20221;-59
2022/05/18 04:22:26;;;;;;;1.15;0.95;;;19.70;58.20;;;;;;5131042;27;20201;-59
2022/05/18 04:25:01;;;;;;;1.90;0.95;;;19.70;58.20;;;;;;5130966;27;20201;-60
2022/05/18 04:27:32;;;;;;;1.63;1.00;;;19.70;58.00;;;;;;5130903;27;20227;-59
2022/05/18 04:30:05;;;;;;;1.10;0.90;;;19.70;57.80;;;;;;5130613;27;20216;-59
2022/05/18 04:32:35;;;;;;;2.10;1.25;;;19.70;57.70;;;;;;5130598;27;20253;-60
2022/05/18 04:35:06;;;;;;;1.45;1.00;;;19.80;57.70;;;;;;5131078;27;20289;-59
2022/05/18 04:37:37;;;;;;;2.67;1.02;;;19.80;57.60;;;;;;5130819;27;20249;-60
2022/05/18 04:40:09;;;;;;;1.63;1.05;;;19.80;57.60;;;;;;5130290;28;20221;-60
2022/05/18 04:42:40;;;;;;;1.08;0.98;;;19.80;57.60;;;;;;5130541;28;20196;-60
2022/05/18 04:45:15;;;;;;;1.33;1.00;;;19.80;57.50;;;;;;5129680;28;20197;-58
2022/05/18 04:47:46;;;;;;;2.15;1.10;;;19.80;57.50;;;;;;5130472;28;20204;-59
2022/05/18 04:50:17;;;;;;;1.02;0.93;;;19.80;57.50;;;;;;5130700;28;20213;-60
2022/05/18 04:52:47;;;;;;;1.65;1.00;;;19.80;57.50;;;;;;5130426;28;20193;-59
2022/05/18 04:55:20;;;;;;;2.28;1.30;;;19.80;57.60;;;;;;5130199;28;20216;-59
2022/05/18 04:57:54;;;;;;;1.42;1.20;;;19.90;57.70;;;;;;5134388;27;20252;-59
2022/05/18 05:00:26;;;;;;;1.35;1.10;;;19.90;57.80;;;;;;5134472;27;20265;-60
2022/05/18 05:02:57;;;;;;;1.33;1.00;;;19.80;57.60;;;;;;5134511;27;20242;-59
2022/05/18 05:05:29;;;;;;;1.13;1.00;;;19.90;57.50;;;;;;5134810;27;20567;-60
2022/05/18 05:07:59;;;;;;;2.10;1.00;;;19.90;57.40;;;;;;5134691;27;20207;-60
2022/05/18 05:10:30;;;;;;;1.52;1.27;;;19.90;57.40;;;;;;5134792;27;20212;-59
2022/05/18 05:13:00;;;;;;;1.10;0.98;;;19.90;57.30;;;;;;5134701;27;20214;-60
2022/05/18 05:15:33;;;;;;;2.05;1.10;;;19.90;57.40;;;;;;5134030;27;20248;-60
2022/05/18 05:18:03;;;;;;;1.50;1.17;;;19.80;57.40;;;;;;5134795;27;20228;-60
2022/05/18 05:20:34;;;;;;;1.05;1.00;;;19.80;57.50;;;;;;5134620;27;20212;-60
2022/05/18 05:23:04;;;;;;;2.03;1.00;;;19.80;57.50;;;;;;5134322;27;20725;-59
2022/05/18 05:25:35;;;;;;;1.58;1.00;;;19.90;57.60;;;;;;5116621;27;20190;-59
2022/05/18 05:28:08;;;;;;;1.48;1.15;;;19.90;57.50;;;;;;5113675;28;20193;-59
2022/05/18 05:30:41;;;;;;;1.10;1.00;;;19.80;57.40;;;;;;5129303;27;20213;-59
2022/05/18 05:33:11;;;;;;;2.08;1.27;;;19.80;57.40;;;;;;5134711;27;20716;-60
2022/05/18 05:35:43;;;;;;;1.17;1.00;;;19.80;57.40;;;;;;5134251;27;20264;-60
2022/05/18 05:38:14;;;;;;;1.27;1.05;;;19.80;57.20;;;;;;5133549;27;20197;-59
2022/05/18 05:40:46;;;;;;;1.60;1.13;;;19.80;57.30;;;;;;5133910;27;20729;-60
2022/05/18 05:43:17;;;;;;;2.03;1.00;;;19.80;57.20;;;;;;5134219;27;20254;-59
2022/05/18 05:45:58;;;;;;;1.77;1.10;;;19.80;57.10;;;;;;5133572;27;20679;-59
2022/05/18 05:48:30;;;;;;;2.05;1.20;;;19.80;56.90;;;;;;5128401;27;20189;-60
2022/05/18 05:51:01;;;;;;;1.10;1.00;;;19.80;56.90;;;;;;5113555;28;20216;-60
2022/05/18 05:53:32;;;;;;;2.53;1.10;;;19.80;57.00;;;;;;5120878;27;20185;-59
2022/05/18 05:56:03;;;;;;;1.23;1.13;;;19.80;57.00;;;;;;5133825;27;20216;-60
2022/05/18 05:58:34;;;;;;;1.40;1.02;;;19.70;56.90;;;;;;5134118;27;20216;-60
2022/05/18 06:01:08;;;;;;;2.22;1.20;;;19.70;56.90;;;;;;5133224;27;20247;-61
2022/05/18 06:03:39;;;;;;;1.50;1.05;;;19.70;56.90;;;;;;5133840;27;20644;-60
2022/05/18 06:06:10;;;;;;;1.00;0.90;;;19.70;57.00;;;;;;5133715;27;20193;-59
2022/05/18 06:08:41;;;;;;;1.10;1.00;;;19.70;57.10;;;;;;5132968;27;20197;-60
2022/05/18 06:11:13;;;;;;;1.13;1.00;;;19.70;57.10;;;;;;5133503;27;20230;-60
2022/05/18 06:13:43;;;;;;;1.10;0.93;;;19.70;57.70;;;;;;5133323;27;20200;-60
2022/05/18 06:16:16;;;;;;;1.40;1.05;;;19.70;57.00;;;;;;5132443;27;20711;-60
2022/05/18 06:18:46;;;;;;;1.33;1.00;;;19.60;57.00;;;;;;5133233;27;20196;-59
2022/05/18 06:21:18;;;;;;;1.25;0.80;;;19.60;57.00;;;;;;5133237;27;20752;-60
2022/05/18 06:23:51;;;;;;;1.77;1.10;;;19.60;57.10;;;;;;5133411;27;20197;-60
2022/05/18 06:26:22;;;;;;;1.00;0.80;;;19.60;57.20;;;;;;5133362;27;20653;-60
2022/05/18 06:28:52;;;;;;;1.27;1.10;;;19.60;57.10;;;;;;5133276;27;20201;-60
2022/05/18 06:31:25;;;;;;;1.67;1.10;;;19.60;57.10;;;;;;5132822;27;20217;-61
2022/05/18 06:33:55;;;;;;;1.33;0.90;;;19.50;57.10;;;;;;5133331;27;20245;-60
2022/05/18 06:36:26;;;;;;;2.10;1.10;;;19.60;57.10;;;;;;5132650;27;20651;-60
2022/05/18 06:38:56;;;;;;;1.10;1.00;;;19.50;57.10;;;;;;5133186;27;20188;-60
2022/05/18 06:41:27;;;;;;;1.15;0.95;;;19.50;57.10;;;;;;5132865;27;20261;-60
2022/05/18 06:44:00;;;;;;;1.30;1.10;;;19.50;57.10;;;;;;5133009;27;20192;-60
2022/05/18 06:46:34;;;;;;;1.52;0.98;;;19.50;57.10;;;;;;5132345;27;20193;-59
2022/05/18 06:49:04;;;;;;;1.05;0.80;;;19.40;57.10;;;;;;5132564;27;20193;-59
2022/05/18 06:51:37;;;;;;;1.08;0.80;;;19.40;57.00;;;;;;5132482;27;20627;-59
2022/05/18 06:54:08;;;;;;;1.23;0.93;;;19.40;56.90;;;;;;5132684;27;20648;-60
2022/05/18 06:56:40;;;;;;;1.10;0.80;;;19.40;56.80;;;;;;5132799;27;20629;-60
2022/05/18 06:59:12;;;;;;;1.08;0.90;;;19.40;56.80;;;;;;5132580;27;20197;-59
2022/05/18 07:01:45;;;;;;;1.00;0.95;;;19.40;56.80;;;;;;5131609;27;20214;-59
2022/05/18 07:04:16;;;;;;;1.40;1.00;;;19.30;56.70;;;;;;5132406;27;20242;-60
2022/05/18 07:06:47;;;;;;;1.50;0.82;;;19.30;56.70;;;;;;5132576;27;20211;-60
2022/05/18 07:09:22;;;;;;;2.00;1.15;;;19.40;57.00;;;;;;5132565;27;20193;-60
2022/05/18 07:11:53;;;;;;;1.98;0.82;;;19.40;57.20;;;;;;5132265;27;20223;-61
2022/05/18 07:14:26;;;;;;;1.17;1.08;;;19.30;57.20;;;;;;5132443;27;20260;-59
2022/05/18 07:16:59;;;;;;;1.25;1.00;;;19.30;57.10;;;;;;5111550;28;20221;-59
2022/05/18 07:19:30;;;;;;;1.27;1.00;;;19.30;57.10;;;;;;5111539;28;20193;-59
2022/05/18 07:22:01;;;;;;;1.60;1.13;;;19.30;57.10;;;;;;5111521;28;20242;-59
2022/05/18 07:24:31;;;;;;;1.10;1.00;;;19.20;57.00;;;;;;5114048;27;20325;-61
2022/05/18 07:27:02;;;;;;;1.67;1.00;;;19.30;57.10;;;;;;5111394;28;20198;-60
2022/05/18 07:29:34;;;;;;;0.90;0.90;;;19.20;57.00;;;;;;5111514;28;20194;-60
2022/05/18 07:32:14;;;;;;;1.15;1.00;;;19.20;57.00;;;;;;5111096;28;20534;-60
2022/05/18 07:34:52;;;;;;;1.35;1.13;;;19.20;57.00;;;;;;5111260;28;20197;-60
2022/05/18 07:37:23;;;;;;;1.05;0.90;;;19.20;56.90;;;;;;5110801;28;20189;-60
2022/05/18 07:39:54;;;;;;;1.33;1.05;;;19.20;56.90;;;;;;5110991;28;20209;-61
2022/05/18 07:42:25;;;;;;;0.85;0.85;;;19.10;56.80;;;;;;5113845;27;20221;-60
2022/05/18 07:44:56;;;;;;;1.33;0.90;;;19.10;56.80;;;;;;5112924;27;20617;-60
2022/05/18 07:47:34;;;;;;;1.48;1.13;;;19.10;56.80;;;;;;5131235;27;20717;-60
2022/05/18 07:50:04;;;;;;;1.00;0.80;;;19.10;56.80;;;;;;5131336;27;20873;-60
2022/05/18 07:52:35;;;;;;;1.75;1.00;;;19.10;56.80;;;;;;5131442;27;20189;-60
2022/05/18 07:55:06;;;;;;;1.38;1.00;;;19.00;56.80;;;;;;5110908;28;20249;-61
2022/05/18 07:57:37;;;;;;;1.10;1.00;;;19.00;56.90;;;;;;5110977;28;20193;-61
2022/05/18 08:00:09;;;;;;;0.80;0.80;;;19.00;56.90;;;;;;5113420;27;20277;-60
2022/05/18 08:02:42;;;;;;;0.98;0.90;;;19.00;56.90;;;;;;5131376;27;20192;-59
2022/05/18 08:05:13;;;;;;;1.50;1.02;;;19.00;56.90;;;;;;5131352;27;20199;-59
2022/05/18 08:07:45;;;;;;;1.08;0.85;;;19.00;56.90;;;;;;5131474;27;20193;-60
2022/05/18 08:15:53;;;;;;;1.45;1.10;;;18.90;56.90;;;;;;5130790;27;20227;-61
2022/05/18 08:18:25;;;;;;;1.05;0.95;;;18.90;56.90;;;;;;5130570;27;20309;-61
2022/05/18 08:20:55;;;;;;;1.58;1.00;;;18.90;56.90;;;;;;5130601;27;20212;-60
2022/05/18 08:23:26;;;;;;;1.10;0.90;;;18.90;57.00;;;;;;5131325;27;20197;-60
2022/05/18 08:25:58;;;;;;;1.45;1.00;;;18.80;57.00;;;;;;5131173;27;20249;-59
2022/05/18 08:28:29;;;;;;;1.10;1.00;;;18.80;57.00;;;;;;5131058;27;20257;-59
2022/05/18 08:31:00;;;;;;;1.05;0.95;;;18.80;56.90;;;;;;5130574;27;20209;-59
2022/05/18 08:33:33;;;;;;;1.67;0.98;;;18.80;57.00;;;;;;5130713;27;20246;-60
2022/05/18 08:36:04;;;;;;;1.02;0.88;;;18.80;57.00;;;;;;5130193;27;20687;-60
2022/05/18 08:38:35;;;;;;;0.95;0.88;;;18.80;57.00;;;;;;5130456;27;20193;-60
2022/05/18 08:41:13;;;;;;;1.40;0.90;;;18.70;57.00;;;;;;5130117;28;20283;-59
2022/05/18 08:43:46;;;;;;;0.95;0.88;;;18.70;57.00;;;;;;5130160;28;20189;-61
2022/05/18 08:46:19;;;;;;;1.23;1.00;;;18.70;57.00;;;;;;5129824;28;20197;-59
2022/05/18 08:49:00;;;;;;;1.30;1.00;;;18.70;57.00;;;;;;5131023;28;20201;-60
2022/05/18 08:51:45;;;;;;;2.05;1.00;;;18.70;57.00;;;;;;5130258;28;20619;-61
2022/05/18 08:54:41;;;;;;;1.00;0.90;;;18.70;57.10;;;;;;5129833;28;20196;-60
2022/05/18 08:57:19;;;;;;;2.67;1.10;;;18.70;57.00;;;;;;5128251;28;20246;-60
2022/05/18 08:59:53;;;;;;;1.38;1.17;;;18.60;57.00;;;;;;5130707;28;20210;-59
2022/05/18 09:02:27;;;;;;;2.67;1.00;;;18.60;57.10;;;;;;5129958;27;20617;-60
2022/05/18 09:05:03;;;;;;;1.30;0.90;;;18.60;57.10;;;;;;5130757;28;20552;-60
2022/05/18 09:07:40;;;;;;;1.02;0.93;;;18.60;57.10;;;;;;5130674;28;20199;-60
2022/05/18 09:10:23;;;;;;;1.00;0.88;;;18.60;57.10;;;;;;5130411;27;20281;-60
2022/05/18 09:12:54;;;;;;;1.27;0.90;;;18.60;57.10;;;;;;5130682;28;20270;-59
2022/05/18 09:15:36;;;;;;;0.90;0.90;;;18.50;57.10;;;;;;5131850;28;20185;-61
2022/05/18 09:18:14;;;;;;;1.33;0.90;;;18.50;57.10;;;;;;5131887;28;20208;-61
2022/05/18 09:20:51;;;;;;;1.48;0.93;;;18.50;57.10;;;;;;5129883;27;20212;-58
2022/05/18 09:23:42;;;;;;;1.48;1.10;;;18.40;57.10;;;;;;5128127;28;20209;-61
2022/05/18 09:26:34;;;;;;;0.93;0.82;;;18.50;57.10;;;;;;5129089;27;20637;-62
2022/05/18 09:29:11;;;;;;;1.23;0.93;;;18.40;57.10;;;;;;5128952;28;20200;-60
2022/05/18 09:31:57;;;;;;;0.85;0.65;;;18.50;57.20;;;;;;5130484;28;20208;-61
2022/05/18 09:34:42;;;;;;;1.73;1.10;;;18.40;57.20;;;;;;5129208;28;20197;-61
2022/05/18 09:37:27;;;;;;;0.85;0.70;;;18.40;57.20;;;;;;5130738;28;20228;-60
2022/05/18 09:40:02;;;;;;;0.73;0.70;;;18.40;57.20;;;;;;5129676;27;20360;-60
2022/05/18 09:42:38;;;;;;;1.88;0.88;;;18.40;57.20;;;;;;5128100;27;20188;-59
2022/05/18 09:45:13;;;;;;;1.02;0.80;;;18.40;57.30;;;;;;5129514;27;20198;-60
2022/05/18 09:47:48;;;;;;;0.95;0.85;;;18.30;57.20;;;;;;5132212;27;20196;-60
2022/05/18 09:50:19;;;;;;;1.17;0.85;;;18.30;57.30;;;;;;5131575;27;20235;-60
2022/05/18 09:52:54;;;;;;;1.30;0.93;;;18.30;57.30;;;;;;5132344;27;20197;-60
2022/05/18 09:55:27;;;;;;;0.85;0.85;;;18.30;57.30;;;;;;5132319;27;20192;-60
2022/05/18 09:58:02;;;;;;;1.25;1.05;;;18.30;57.30;;;;;;5132530;27;20231;-60
2022/05/18 10:00:34;;;;;;;0.85;0.82;;;18.30;57.30;;;;;;5132264;27;20212;-60
2022/05/18 10:08:56;;;;;;;0.80;0.73;;;18.20;57.30;;;;;;5132023;27;20244;-59
2022/05/18 10:11:32;;;;;;;1.30;0.90;;;18.30;57.40;;;;;;5131656;27;20295;-61
2022/05/18 10:14:11;;;;;;;0.77;0.77;;;18.20;57.30;;;;;;5132013;27;20241;-60
2022/05/18 10:16:47;;;;;;;1.02;1.00;;;18.20;57.40;;;;;;5130879;27;20286;-60
2022/05/18 10:19:22;;;;;;;1.15;0.75;;;18.20;57.40;;;;;;5132196;27;20194;-61
2022/05/18 10:21:56;;;;;;;1.10;1.00;;;18.20;57.40;;;;;;5130993;27;20297;-60
2022/05/18 10:24:38;;;;;;;1.30;0.60;;;18.20;57.50;;;;;;5131601;27;20253;-60
2022/05/18 10:27:19;;;;;;;1.00;0.90;;;18.20;57.50;;;;;;5130401;27;20189;-59
2022/05/18 10:30:05;;;;;;;1.15;0.85;;;18.20;57.50;;;;;;5130789;27;20211;-60
2022/05/18 10:32:35;;;;;;;0.85;0.80;;;18.20;57.50;;;;;;5130593;27;20256;-60
2022/05/18 10:35:07;;;;;;;0.70;0.70;;;18.20;57.50;;;;;;5131816;27;20189;-60
2022/05/18 10:37:39;;;;;;;0.98;0.82;;;18.20;57.50;;;;;;5132193;27;20224;-60
2022/05/18 10:40:19;;;;;;;1.48;0.90;;;18.10;57.50;;;;;;5134292;27;20676;-62
2022/05/18 10:42:52;;;;;;;2.30;0.95;;;18.10;57.50;;;;;;5133622;27;20192;-60
2022/05/18 10:45:35;;;;;;;1.15;0.90;;;18.10;57.60;;;;;;5133081;27;20218;-60
2022/05/18 10:48:11;;;;;;;1.25;0.90;;;18.10;57.60;;;;;;5132739;27;20280;-60
2022/05/18 10:50:43;;;;;;;0.80;0.80;;;18.10;57.50;;;;;;5132588;27;20213;-60
2022/05/18 10:53:35;;;;;;;1.25;0.80;;;18.10;57.50;;;;;;5132350;27;20193;-59
2022/05/18 10:56:11;;;;;;;1.20;0.80;;;18.10;57.50;;;;;;5132663;27;20277;-60
2022/05/18 10:58:51;;;;;;;1.00;0.90;;;18.10;57.50;;;;;;5132524;27;20676;-60
2022/05/18 11:01:27;;;;;;;1.33;0.98;;;18.10;57.50;;;;;;5132597;27;20298;-60
2022/05/18 11:04:02;;;;;;;2.15;0.82;;;18.10;57.60;;;;;;5132296;27;20253;-63
2022/05/18 11:06:35;;;;;;;1.30;1.00;;;18.10;57.60;;;;;;5132197;27;20200;-60
2022/05/18 11:09:09;;;;;;;0.60;0.60;;;18.00;57.60;;;;;;5131827;27;20193;-61
2022/05/18 11:11:49;;;;;;;0.95;0.80;;;18.00;57.60;;;;;;5132227;27;20265;-61
2022/05/18 11:14:24;;;;;;;0.88;0.82;;;18.00;57.60;;;;;;5132169;27;20196;-60
2022/05/18 11:17:02;;;;;;;0.70;0.70;;;18.00;57.60;;;;;;5132138;27;20273;-61
2022/05/18 11:19:44;;;;;;;0.88;0.80;;;18.00;57.60;;;;;;5132396;27;20246;-61
2022/05/18 11:22:26;;;;;;;0.90;0.88;;;18.00;57.60;;;;;;5131510;27;20257;-61
2022/05/18 11:25:12;;;;;;;0.95;0.90;;;18.00;57.60;;;;;;5131761;27;20181;-60
2022/05/18 11:27:49;;;;;;;0.80;0.80;;;18.00;57.60;;;;;;5131823;27;20265;-61
2022/05/18 11:30:25;;;;;;;0.63;0.63;;;18.00;57.60;;;;;;5132362;27;20254;-61
2022/05/18 11:33:07;;;;;;;0.90;0.80;;;18.00;57.60;;;;;;5131709;27;20193;-61
2022/05/18 11:35:49;;;;;;;1.17;1.08;;;17.90;57.60;;;;;;5131217;27;20295;-61
2022/05/18 11:38:38;;;;;;;1.08;0.80;;;17.90;57.60;;;;;;5130980;27;20224;-60
2022/05/18 11:41:21;;;;;;;0.60;0.60;;;18.00;57.60;;;;;;5131511;27;20748;-61
2022/05/18 11:44:02;;;;;;;0.80;0.80;;;17.90;57.60;;;;;;5129936;27;20261;-61
2022/05/18 11:46:52;;;;;;;0.85;0.80;;;17.90;57.60;;;;;;5131690;27;20188;-60
2022/05/18 11:49:25;;;;;;;0.70;0.70;;;17.90;57.60;;;;;;5128091;27;20644;-60
2022/05/18 11:52:18;;;;;;;1.20;0.85;;;17.90;57.60;;;;;;5131180;27;20213;-60
2022/05/18 11:55:10;;;;;;;1.02;0.88;;;17.90;57.70;;;;;;5111155;28;20276;-60
2022/05/18 11:57:49;;;;;;;0.90;0.70;;;17.90;57.70;;;;;;5111155;28;20225;-60
2022/05/18 12:00:44;;;;;;;0.90;0.80;;;17.90;57.70;;;;;;5110825;28;20278;-61
2022/05/18 12:03:42;;;;;;;0.70;0.70;;;17.80;57.60;;;;;;5111004;28;20197;-61
2022/05/18 12:06:49;;;;;;;1.20;0.88;;;17.90;57.60;;;;;;5110172;28;20242;-61
2022/05/18 12:09:38;;;;;;;1.83;1.10;;;17.80;57.60;;;;;;5129346;27;20664;-61
2022/05/18 12:12:17;;;;;;;0.88;0.70;;;17.90;57.70;;;;;;5131481;27;20648;-61
2022/05/18 12:14:57;;;;;;;0.93;0.90;;;17.80;57.60;;;;;;5125583;27;20193;-61
2022/05/18 12:17:35;;;;;;;0.90;0.75;;;17.80;57.60;;;;;;5110509;28;20217;-61
2022/05/18 12:20:12;;;;;;;0.85;0.57;;;17.80;57.70;;;;;;5110248;28;20684;-60
2022/05/18 12:22:45;;;;;;;0.70;0.68;;;17.80;57.70;;;;;;5114116;27;20265;-59
2022/05/18 12:25:18;;;;;;;1.15;0.80;;;17.80;57.60;;;;;;5131034;27;20214;-58
2022/05/18 12:27:56;;;;;;;2.13;0.70;;;17.80;57.60;;;;;;5130955;27;20188;-60
2022/05/18 12:30:28;;;;;;;5.45;1.02;;;17.80;57.60;;;;;;5131149;27;20216;-61
2022/05/18 12:33:01;;;;;;;1.20;0.70;;;17.80;57.70;;;;;;5130897;27;20192;-61
2022/05/18 12:35:39;;;;;;;0.73;0.57;;;17.80;57.60;;;;;;5131086;27;20530;-61
2022/05/18 12:38:14;;;;;;;0.80;0.70;;;17.80;57.70;;;;;;5130992;27;20216;-61
2022/05/18 12:40:56;;;;;;;1.00;0.80;;;17.80;57.70;;;;;;5130439;28;20256;-60
2022/05/18 12:43:34;;;;;;;1.00;0.60;;;17.80;57.60;;;;;;5130626;28;20648;-61
2022/05/18 12:46:08;;;;;;;1.98;0.90;;;17.80;57.70;;;;;;5130614;27;20257;-60
2022/05/18 12:48:46;;;;;;;1.10;0.77;;;17.80;57.70;;;;;;5130407;28;20211;-60
2022/05/18 12:51:34;;;;;;;0.68;0.60;;;17.80;57.70;;;;;;5130623;28;20688;-61
2022/05/18 12:54:23;;;;;;;0.50;0.50;;;17.70;57.70;;;;;;5129972;28;20242;-61
2022/05/18 12:57:09;;;;;;;1.23;0.80;;;17.80;57.70;;;;;;5130838;28;20189;-61
2022/05/18 12:59:58;;;;;;;1.35;0.90;;;17.70;57.70;;;;;;5128191;28;20189;-61
2022/05/18 13:02:44;;;;;;;1.50;0.70;;;17.70;57.70;;;;;;5130788;28;20224;-61
2022/05/18 13:05:36;;;;;;;0.60;0.60;;;17.70;57.70;;;;;;5130777;28;20228;-61
2022/05/18 13:08:38;;;;;;;1.52;0.82;;;17.70;57.70;;;;;;5129826;28;20699;-61
2022/05/18 13:11:18;;;;;;;1.40;0.75;;;17.70;57.60;;;;;;5129764;27;20288;-61
2022/05/18 13:14:20;;;;;;;1.10;0.77;;;17.70;57.60;;;;;;5130106;28;20197;-60
2022/05/18 13:17:18;;;;;;;0.90;0.70;;;17.70;57.70;;;;;;5130582;27;20245;-60
2022/05/18 13:19:56;;;;;;;0.60;0.60;;;17.70;57.60;;;;;;5134464;27;20196;-61
2022/05/18 13:22:50;;;;;;;1.10;0.88;;;17.70;57.70;;;;;;5134354;27;20211;-60
2022/05/18 13:25:23;;;;;;;1.00;0.70;;;17.60;57.60;;;;;;5125917;27;20197;-60
2022/05/18 13:27:56;;;;;;;0.95;0.70;;;17.60;57.70;;;;;;5133635;27;20246;-61
2022/05/18 13:30:40;;;;;;;1.27;0.70;;;17.60;57.70;;;;;;5134954;27;20839;-61
2022/05/18 13:33:15;;;;;;;0.93;0.70;;;17.60;57.70;;;;;;5134227;27;20192;-61
2022/05/18 13:35:49;;;;;;;1.02;0.80;;;17.60;57.70;;;;;;5125181;27;20257;-61
2022/05/18 13:38:24;;;;;;;0.90;0.80;;;17.60;57.70;;;;;;5118754;27;20258;-61
2022/05/18 13:41:00;;;;;;;0.85;0.80;;;17.70;57.80;;;;;;5133917;27;20244;-61